Aeroporto :
LOGIN :

Iscrizione | Disclaimer

   EN    FR    IT 

 










Sommario :    VFR   VFR Marginale   IFR   IFR Intensivo   IFR Molto Intensivo
Visibilità : 
Base nubi : 
>= 8 km
>= 3000ft
5 / 8 km
1000 / 3000 ft
1500m / 5 km
500 / 1000 ft
800 / 1500m
200 / 500 ft
< 800m
< 200 ft
Simboli :   Temporali  Nebbia  Neve Forte  Precipitazioni Forti  Vento > 20 kt
SIGMETs :   Varie  Temporali  Ghiacco  Turbolenza  Onda orograficha  Ceneri Vulcaniche






- Altitudine del aeroporto : 1299 ft


EDTY - Adolf Würth

ULTIMO METAR :
  • 221620Z 25006KT CAVOK 12/M02 Q1024

METARs OBSOLETI :
  • 221550Z 24007KT CAVOK 12/M02 Q1024
  • 221520Z 24007KT CAVOK 12/M02 Q1024
  • 221450Z 22008KT 200V260 CAVOK 12/M02 Q1024
  • 221420Z 23008KT CAVOK 12/M01 Q1024
  • 221350Z 22012KT 190V250 CAVOK 12/M03 Q1024

TAF TAF EDTY
Valido dal 22 a 15 ore il 23 a 00 ore UTC


221400Z 2215/2224 25012G25KT CAVOK
PROB30
TEMPO 2222/2224 4000 -RADZ BKN014



MetMap, La meteo Aeronautica in un colpo d'occhio ! - Copyright ORBIFLY Dicembre 2007 - Disclaimer

ORBIFLY MET'MAP TEAM :

Programmazione e sviluppo : Alexandra Zaïnal
Concezione : Baudouin d'Aumeries
Aiuto per la programmazione : Marc-Olivier Méhu
Supporto tecnico e logistico : Manuel Goepfert
Aiuto per la traduzione : Arnaldo La Scala

Contatto : metmap@orbifly.com




FONTI E CREDITI :

   NOAA